createdAt,value
2018-12-07T00:00:27.077Z,1007.98
2018-12-07T00:01:27.156Z,1007.90
2018-12-07T00:02:27.083Z,1007.82
2018-12-07T00:03:27.060Z,1007.87
2018-12-07T00:04:27.037Z,1007.90
2018-12-07T00:05:27.026Z,1007.88
2018-12-07T00:06:27.018Z,1007.90
2018-12-07T00:07:27.007Z,1007.82
2018-12-07T00:08:27.013Z,1007.84
2018-12-07T00:09:27.000Z,1007.84
2018-12-07T00:10:26.974Z,1007.77
2018-12-07T00:11:26.966Z,1007.84
2018-12-07T00:12:26.965Z,1007.80
2018-12-07T00:13:26.964Z,1007.80
2018-12-07T00:14:27.050Z,1007.77
2018-12-07T00:15:26.930Z,1007.69
2018-12-07T00:16:26.905Z,1007.72
2018-12-07T00:17:26.908Z,1007.71
2018-12-07T00:18:26.913Z,1007.75
2018-12-07T00:19:26.882Z,1007.70
2018-12-07T00:20:26.882Z,1007.71
2018-12-07T00:21:26.868Z,1007.64
2018-12-07T00:22:26.857Z,1007.72
2018-12-07T00:23:26.883Z,1007.73
2018-12-07T00:24:26.834Z,1007.70
2018-12-07T00:25:26.821Z,1007.72
2018-12-07T00:26:26.810Z,1007.73
2018-12-07T00:27:26.801Z,1007.61
2018-12-07T00:28:26.793Z,1007.60
2018-12-07T00:29:26.807Z,1007.63
2018-12-07T00:30:26.767Z,1007.62
2018-12-07T00:31:26.755Z,1007.50
2018-12-07T00:32:26.746Z,1007.52
2018-12-07T00:33:26.736Z,1007.44
2018-12-07T00:34:26.735Z,1007.51
2018-12-07T00:35:26.705Z,1007.45
2018-12-07T00:36:26.703Z,1007.45
2018-12-07T00:37:26.693Z,1007.45
2018-12-07T00:38:26.679Z,1007.44
2018-12-07T00:39:26.688Z,1007.47
2018-12-07T00:40:26.672Z,1007.48
2018-12-07T00:41:26.649Z,1007.51
2018-12-07T00:42:26.637Z,1007.49
2018-12-07T00:43:26.654Z,1007.40
2018-12-07T00:44:26.634Z,1007.49
2018-12-07T00:45:26.609Z,1007.47
2018-12-07T00:46:26.596Z,1007.46
2018-12-07T00:47:26.584Z,1007.51
2018-12-07T00:48:26.581Z,1007.47
2018-12-07T00:49:26.592Z,1007.48
2018-12-07T00:50:26.547Z,1007.49
2018-12-07T00:51:26.544Z,1007.47
2018-12-07T00:52:26.532Z,1007.44
2018-12-07T00:53:26.523Z,1007.41
2018-12-07T00:54:26.534Z,1007.41
2018-12-07T00:55:26.498Z,1007.39
2018-12-07T00:56:26.494Z,1007.39
2018-12-07T00:57:26.487Z,1007.36
2018-12-07T00:58:26.472Z,1007.37
2018-12-07T00:59:26.483Z,1007.37
2018-12-07T01:00:26.468Z,1007.30
2018-12-07T01:01:26.436Z,1007.38
2018-12-07T01:02:26.423Z,1007.36
2018-12-07T01:03:26.478Z,1007.34
2018-12-07T01:04:26.455Z,1007.28
2018-12-07T01:05:26.399Z,1007.20
2018-12-07T01:06:26.397Z,1007.20
2018-12-07T01:07:26.377Z,1007.21
2018-12-07T01:08:26.366Z,1007.22
2018-12-07T01:09:26.370Z,1007.20
2018-12-07T01:10:26.350Z,1007.21
2018-12-07T01:11:26.348Z,1007.22
2018-12-07T01:12:26.322Z,1007.17
2018-12-07T01:13:26.311Z,1007.13
2018-12-07T01:14:26.347Z,1007.19
2018-12-07T01:15:26.292Z,1007.14
2018-12-07T01:16:26.294Z,1007.10
2018-12-07T01:17:26.272Z,1007.14
2018-12-07T01:18:26.262Z,1007.11
2018-12-07T01:19:26.264Z,1007.12
2018-12-07T01:20:26.247Z,1007.11
2018-12-07T01:21:26.228Z,1007.08
2018-12-07T01:22:26.216Z,1007.04
2018-12-07T01:23:26.210Z,1007.02
2018-12-07T01:24:26.218Z,1006.94
2018-12-07T01:25:26.196Z,1007.05
2018-12-07T01:26:26.180Z,1007.02
2018-12-07T01:27:26.167Z,1007.06
2018-12-07T01:28:26.177Z,1007.05
2018-12-07T01:29:26.150Z,1007.07
2018-12-07T01:30:26.153Z,1007.05
2018-12-07T01:31:26.136Z,1007.05
2018-12-07T01:32:26.127Z,1007.02
2018-12-07T01:33:26.104Z,1007.01
2018-12-07T01:34:26.098Z,1007.04
2018-12-07T01:35:26.106Z,1007.03
2018-12-07T01:36:26.082Z,1007.04
2018-12-07T01:37:26.081Z,1007.00
2018-12-07T01:38:26.070Z,1007.00
2018-12-07T01:39:26.048Z,1007.04
2018-12-07T01:40:26.053Z,1006.98
2018-12-07T01:41:26.029Z,1007.01
2018-12-07T01:42:26.020Z,1006.96
2018-12-07T01:43:26.034Z,1007.02
2018-12-07T01:44:25.991Z,1006.97
2018-12-07T01:45:26.005Z,1007.00
2018-12-07T01:46:25.980Z,1006.95
2018-12-07T01:47:25.969Z,1006.94
2018-12-07T01:48:25.944Z,1006.94
2018-12-07T01:49:25.948Z,1006.89
2018-12-07T01:50:25.963Z,1006.85
2018-12-07T01:51:25.920Z,1006.84
2018-12-07T01:52:25.922Z,1006.79
2018-12-07T01:53:25.906Z,1006.83
2018-12-07T01:54:25.888Z,1006.85
2018-12-07T01:55:25.879Z,1006.90
2018-12-07T01:56:25.885Z,1006.85
2018-12-07T01:57:25.857Z,1006.89
2018-12-07T01:58:25.850Z,1006.89
2018-12-07T01:59:25.838Z,1006.86
2018-12-07T02:00:25.853Z,1006.84
2018-12-07T02:01:25.833Z,1006.86
2018-12-07T02:02:25.856Z,1006.83
2018-12-07T02:03:25.808Z,1006.82
2018-12-07T02:04:25.784Z,1006.83
2018-12-07T02:05:25.796Z,1006.81
2018-12-07T02:06:25.789Z,1006.74
2018-12-07T02:07:25.791Z,1006.70
2018-12-07T02:08:25.762Z,1006.69
2018-12-07T02:09:25.734Z,1006.62
2018-12-07T02:10:25.732Z,1006.65
2018-12-07T02:11:25.734Z,1006.60
2018-12-07T02:12:25.718Z,1006.60
2018-12-07T02:13:25.705Z,1006.54
2018-12-07T02:14:25.685Z,1006.63
2018-12-07T02:15:25.668Z,1006.60
2018-12-07T02:16:25.680Z,1006.54
2018-12-07T02:17:25.649Z,1006.54
2018-12-07T02:18:25.645Z,1006.49
2018-12-07T02:19:25.635Z,1006.49
2018-12-07T02:20:25.617Z,1006.44
2018-12-07T02:21:25.624Z,1006.42
2018-12-07T02:22:25.611Z,1006.43
2018-12-07T02:23:25.585Z,1006.38
2018-12-07T02:24:25.583Z,1006.38
2018-12-07T02:25:25.572Z,1006.31
2018-12-07T02:26:25.576Z,1006.32
2018-12-07T02:27:25.544Z,1006.44
2018-12-07T02:28:25.536Z,1006.35
2018-12-07T02:29:25.526Z,1006.38
2018-12-07T02:30:25.527Z,1006.35
2018-12-07T02:31:25.523Z,1006.35
2018-12-07T02:32:25.495Z,1006.36
2018-12-07T02:33:25.488Z,1006.28
2018-12-07T02:34:25.495Z,1006.32
2018-12-07T02:35:25.465Z,1006.29
2018-12-07T02:36:25.469Z,1006.28
2018-12-07T02:37:25.447Z,1006.29
2018-12-07T02:38:25.441Z,1006.26
2018-12-07T02:39:25.421Z,1006.24
2018-12-07T02:40:25.410Z,1006.29
2018-12-07T02:41:25.412Z,1006.21
2018-12-07T02:42:25.409Z,1006.21
2018-12-07T02:43:25.384Z,1006.21
2018-12-07T02:44:25.371Z,1006.19
2018-12-07T02:45:25.357Z,1006.17
2018-12-07T02:46:25.415Z,1006.20
2018-12-07T02:47:25.345Z,1006.21
2018-12-07T02:48:25.336Z,1006.24
2018-12-07T02:49:25.334Z,1006.15
2018-12-07T02:50:25.359Z,1006.05
2018-12-07T02:51:25.328Z,1006.12
2018-12-07T02:52:25.414Z,1006.06
2018-12-07T02:53:25.271Z,1006.02
2018-12-07T02:54:25.261Z,1006.04
2018-12-07T02:55:25.252Z,1005.99
2018-12-07T02:56:25.277Z,1005.93
2018-12-07T02:57:25.249Z,1005.97
2018-12-07T02:58:25.232Z,1005.97
2018-12-07T02:59:25.306Z,1005.93
2018-12-07T03:00:25.200Z,1005.92
2018-12-07T03:01:25.195Z,1005.92
2018-12-07T03:02:25.203Z,1005.93
2018-12-07T03:03:25.172Z,1005.86
2018-12-07T03:04:25.175Z,1005.84
2018-12-07T03:05:25.147Z,1005.80
2018-12-07T03:06:25.140Z,1005.83
2018-12-07T03:07:25.142Z,1005.82
2018-12-07T03:08:25.122Z,1005.80
2018-12-07T03:09:25.141Z,1005.76
2018-12-07T03:10:25.102Z,1005.81
2018-12-07T03:11:25.090Z,1005.79
2018-12-07T03:12:25.091Z,1005.74
2018-12-07T03:13:25.073Z,1005.75
2018-12-07T03:14:25.068Z,1005.71
2018-12-07T03:15:25.051Z,1005.73
2018-12-07T03:16:25.040Z,1005.71
2018-12-07T03:17:25.034Z,1005.68
2018-12-07T03:18:25.026Z,1005.70
2018-12-07T03:19:25.005Z,1005.69
2018-12-07T03:20:24.994Z,1005.68
2018-12-07T03:21:24.985Z,1005.70
2018-12-07T03:22:24.989Z,1005.73
2018-12-07T03:23:24.962Z,1005.66
2018-12-07T03:24:24.952Z,1005.63
2018-12-07T03:25:24.952Z,1005.65
2018-12-07T03:26:24.936Z,1005.67
2018-12-07T03:27:24.940Z,1005.66
2018-12-07T03:28:24.908Z,1005.66
2018-12-07T03:29:24.904Z,1005.59
2018-12-07T03:30:24.919Z,1005.57
2018-12-07T03:31:24.884Z,1005.54
2018-12-07T03:32:24.907Z,1005.55
2018-12-07T03:33:24.860Z,1005.53
2018-12-07T03:34:24.846Z,1005.57
2018-12-07T03:35:24.886Z,1005.55
2018-12-07T03:36:24.832Z,1005.48
2018-12-07T03:37:24.843Z,1005.54
2018-12-07T03:38:24.820Z,1005.51
2018-12-07T03:39:24.800Z,1005.45
2018-12-07T03:40:24.792Z,1005.47
2018-12-07T03:41:24.774Z,1005.50
2018-12-07T03:42:24.788Z,1005.46
2018-12-07T03:43:24.754Z,1005.47
2018-12-07T03:44:24.756Z,1005.50
2018-12-07T03:45:24.733Z,1005.50
2018-12-07T03:46:24.726Z,1005.43
2018-12-07T03:47:24.739Z,1005.43
2018-12-07T03:48:24.705Z,1005.43
2018-12-07T03:49:24.695Z,1005.46
2018-12-07T03:50:24.689Z,1005.40
2018-12-07T03:51:24.675Z,1005.39
2018-12-07T03:52:24.693Z,1005.38
2018-12-07T03:53:24.649Z,1005.39
2018-12-07T03:54:24.647Z,1005.37
2018-12-07T03:55:24.642Z,1005.38
2018-12-07T03:56:24.626Z,1005.36
2018-12-07T03:57:24.612Z,1005.31
2018-12-07T03:58:24.619Z,1005.35
2018-12-07T03:59:24.588Z,1005.37
2018-12-07T04:00:24.582Z,1005.31
2018-12-07T04:01:24.568Z,1005.32
2018-12-07T04:02:24.559Z,1005.35
2018-12-07T04:03:24.569Z,1005.32
2018-12-07T04:04:24.545Z,1005.35
2018-12-07T04:05:24.531Z,1005.35
2018-12-07T04:06:24.521Z,1005.30
2018-12-07T04:07:24.505Z,1005.28
2018-12-07T04:08:24.510Z,1005.30
2018-12-07T04:09:24.485Z,1005.25
2018-12-07T04:10:24.478Z,1005.31
2018-12-07T04:11:24.463Z,1005.32
2018-12-07T04:12:24.461Z,1005.27
2018-12-07T04:13:24.478Z,1005.23
2018-12-07T04:14:24.433Z,1005.24
2018-12-07T04:15:24.421Z,1005.24
2018-12-07T04:16:24.413Z,1005.25
2018-12-07T04:17:24.406Z,1005.28
2018-12-07T04:18:24.390Z,1005.28
2018-12-07T04:19:24.395Z,1005.24
2018-12-07T04:20:24.373Z,1005.21
2018-12-07T04:21:24.363Z,1005.21
2018-12-07T04:22:24.358Z,1005.16
2018-12-07T04:23:24.372Z,1005.16
2018-12-07T04:24:24.351Z,1005.20
2018-12-07T04:25:24.320Z,1005.21
2018-12-07T04:26:24.321Z,1005.26
2018-12-07T04:27:24.386Z,1005.22
2018-12-07T04:28:24.291Z,1005.16
2018-12-07T04:29:24.291Z,1005.24
2018-12-07T04:30:24.275Z,1005.19
2018-12-07T04:31:24.257Z,1005.20
2018-12-07T04:32:24.247Z,1005.20
2018-12-07T04:33:24.242Z,1005.17
2018-12-07T04:34:24.240Z,1005.15
2018-12-07T04:35:24.231Z,1005.21
2018-12-07T04:36:24.208Z,1005.18
2018-12-07T04:37:24.202Z,1005.21
2018-12-07T04:38:24.184Z,1005.16
2018-12-07T04:39:24.204Z,1005.17
2018-12-07T04:40:24.166Z,1005.18
2018-12-07T04:41:24.153Z,1005.23
2018-12-07T04:42:24.148Z,1005.26
2018-12-07T04:43:24.142Z,1005.21
2018-12-07T04:44:24.125Z,1005.16
2018-12-07T04:45:24.132Z,1005.18
2018-12-07T04:46:24.114Z,1005.17
2018-12-07T04:47:24.092Z,1005.17
2018-12-07T04:48:24.084Z,1005.19
2018-12-07T04:49:24.082Z,1005.16
2018-12-07T04:50:24.078Z,1005.19
2018-12-07T04:51:24.050Z,1005.14
2018-12-07T04:52:24.038Z,1005.09
2018-12-07T04:53:24.029Z,1005.10
2018-12-07T04:54:24.019Z,1005.09
2018-12-07T04:55:24.030Z,1005.07
2018-12-07T04:56:24.001Z,1005.04
2018-12-07T04:57:23.991Z,1005.07
2018-12-07T04:58:23.978Z,1005.05
2018-12-07T04:59:23.977Z,1005.04
2018-12-07T05:00:23.970Z,1004.96
2018-12-07T05:01:23.955Z,1004.98
2018-12-07T05:02:23.937Z,1004.97
2018-12-07T05:03:23.927Z,1004.98
2018-12-07T05:04:23.951Z,1005.01
2018-12-07T05:05:23.936Z,1005.01
2018-12-07T05:06:23.897Z,1005.00
2018-12-07T05:07:23.882Z,1004.99
2018-12-07T05:08:23.877Z,1004.93
2018-12-07T05:09:23.860Z,1004.91
2018-12-07T05:10:23.856Z,1004.92
2018-12-07T05:11:23.855Z,1004.91
2018-12-07T05:12:23.832Z,1004.88
2018-12-07T05:13:23.828Z,1004.93
2018-12-07T05:14:23.814Z,1004.93
2018-12-07T05:15:23.821Z,1004.94
2018-12-07T05:16:23.812Z,1004.93
2018-12-07T05:17:23.791Z,1004.95
2018-12-07T05:18:23.768Z,1004.89
2018-12-07T05:19:23.762Z,1004.92
2018-12-07T05:20:23.765Z,1004.92
2018-12-07T05:21:23.753Z,1004.89
2018-12-07T05:22:23.737Z,1004.88
2018-12-07T05:23:23.719Z,1004.89
2018-12-07T05:24:23.710Z,1004.87
2018-12-07T05:25:23.707Z,1004.83
2018-12-07T05:26:23.710Z,1004.88
2018-12-07T05:27:23.677Z,1004.87
2018-12-07T05:28:23.682Z,1004.91
2018-12-07T05:29:23.657Z,1004.93
2018-12-07T05:30:23.650Z,1004.93
2018-12-07T05:31:23.658Z,1004.96
2018-12-07T05:32:23.731Z,1004.90
2018-12-07T05:33:23.612Z,1004.85
2018-12-07T05:34:23.605Z,1004.91
2018-12-07T05:35:23.597Z,1004.90
2018-12-07T05:36:23.621Z,1004.84
2018-12-07T05:37:23.577Z,1004.85
2018-12-07T05:38:23.560Z,1004.87
2018-12-07T05:39:23.555Z,1004.91
2018-12-07T05:40:23.542Z,1004.94
2018-12-07T05:41:23.531Z,1004.93
2018-12-07T05:42:23.531Z,1004.92
2018-12-07T05:43:23.514Z,1004.89
2018-12-07T05:44:23.500Z,1004.87
2018-12-07T05:45:23.488Z,1004.91
2018-12-07T05:46:23.476Z,1004.95
2018-12-07T05:47:23.490Z,1004.91
2018-12-07T05:48:23.849Z,1004.95
2018-12-07T05:49:23.451Z,1004.91
2018-12-07T05:50:23.434Z,1004.93
2018-12-07T05:51:23.428Z,1004.92
2018-12-07T05:52:23.436Z,1004.90
2018-12-07T05:53:23.406Z,1004.89
2018-12-07T05:54:23.396Z,1004.87
2018-12-07T05:55:23.427Z,1004.80
2018-12-07T05:56:23.375Z,1004.85
2018-12-07T05:57:23.385Z,1004.91
2018-12-07T05:58:23.353Z,1004.92
2018-12-07T05:59:23.937Z,1004.87
2018-12-07T06:00:23.334Z,1004.86
2018-12-07T06:01:23.320Z,1004.80
2018-12-07T06:02:23.335Z,1004.79
2018-12-07T06:03:23.302Z,1004.86
2018-12-07T06:04:23.850Z,1004.83
2018-12-07T06:05:23.311Z,1004.84
2018-12-07T06:06:23.339Z,1004.78
2018-12-07T06:07:23.261Z,1004.79
2018-12-07T06:08:23.280Z,1004.83
2018-12-07T06:09:23.240Z,1004.76
2018-12-07T06:10:23.236Z,1004.76
2018-12-07T06:11:23.229Z,1004.80
2018-12-07T06:12:23.212Z,1004.84
2018-12-07T06:13:23.213Z,1004.81
2018-12-07T06:14:23.186Z,1004.83
2018-12-07T06:15:23.173Z,1004.82
2018-12-07T06:16:23.162Z,1004.78
2018-12-07T06:17:23.158Z,1004.77
2018-12-07T06:18:23.162Z,1004.81
2018-12-07T06:19:23.144Z,1004.78
2018-12-07T06:20:23.123Z,1004.79
2018-12-07T06:21:23.129Z,1004.80
2018-12-07T06:22:23.103Z,1004.80
2018-12-07T06:23:23.111Z,1004.77
2018-12-07T06:24:23.089Z,1004.82
2018-12-07T06:25:23.086Z,1004.78
2018-12-07T06:26:23.061Z,1004.77
2018-12-07T06:27:23.056Z,1004.74
2018-12-07T06:28:23.077Z,1004.73
2018-12-07T06:29:23.045Z,1004.70
2018-12-07T06:30:23.027Z,1004.68
2018-12-07T06:31:23.013Z,1004.64
2018-12-07T06:32:23.005Z,1004.59
2018-12-07T06:33:22.994Z,1004.62
2018-12-07T06:34:22.995Z,1004.67
2018-12-07T06:35:22.971Z,1004.66
2018-12-07T06:36:22.961Z,1004.68
2018-12-07T06:37:22.965Z,1004.66
2018-12-07T06:38:22.940Z,1004.67
2018-12-07T06:39:22.950Z,1004.69
2018-12-07T06:40:22.922Z,1004.69
2018-12-07T06:41:22.913Z,1004.71
2018-12-07T06:42:22.901Z,1004.57
2018-12-07T06:43:22.898Z,1004.59
2018-12-07T06:44:22.890Z,1004.61
2018-12-07T06:45:22.871Z,1004.60
2018-12-07T06:46:22.925Z,1004.54
2018-12-07T06:47:22.848Z,1004.59
2018-12-07T06:48:22.845Z,1004.57
2018-12-07T06:49:22.839Z,1004.58
2018-12-07T06:50:22.822Z,1004.52
2018-12-07T06:51:22.809Z,1004.51
2018-12-07T06:52:22.796Z,1004.45
2018-12-07T06:53:22.792Z,1004.48
2018-12-07T06:54:22.802Z,1004.50
2018-12-07T06:55:22.765Z,1004.47
2018-12-07T06:56:22.758Z,1004.48
2018-12-07T06:57:22.743Z,1004.49
2018-12-07T06:58:22.734Z,1004.49
2018-12-07T06:59:22.725Z,1004.43
2018-12-07T07:00:22.722Z,1004.42
2018-12-07T07:01:22.701Z,1004.41
2018-12-07T07:02:22.703Z,1004.43
2018-12-07T07:03:22.686Z,1004.42
2018-12-07T07:04:22.708Z,1004.49
2018-12-07T07:05:22.697Z,1004.44
2018-12-07T07:06:22.648Z,1004.46
2018-12-07T07:07:22.638Z,1004.48
2018-12-07T07:08:22.636Z,1004.44
2018-12-07T07:09:22.617Z,1004.43
2018-12-07T07:10:22.624Z,1004.46
2018-12-07T07:11:22.605Z,1004.48
2018-12-07T07:12:22.589Z,1004.47
2018-12-07T07:13:22.580Z,1004.50
2018-12-07T07:14:22.568Z,1004.53
2018-12-07T07:15:22.574Z,1004.49
2018-12-07T07:16:23.155Z,1004.48
2018-12-07T07:17:22.539Z,1004.48
2018-12-07T07:18:22.530Z,1004.52
2018-12-07T07:19:22.524Z,1004.50
2018-12-07T07:20:22.527Z,1004.53
2018-12-07T07:21:22.500Z,1004.53
2018-12-07T07:22:22.485Z,1004.52
2018-12-07T07:23:22.475Z,1004.50
2018-12-07T07:24:22.464Z,1004.51
2018-12-07T07:25:22.485Z,1004.53
2018-12-07T07:26:22.443Z,1004.51
2018-12-07T07:27:22.435Z,1004.52
2018-12-07T07:28:22.427Z,1004.55
2018-12-07T07:29:22.415Z,1004.55
2018-12-07T07:30:22.406Z,1004.50
2018-12-07T07:31:22.411Z,1004.56
2018-12-07T07:32:22.383Z,1004.53
2018-12-07T07:33:22.375Z,1004.55
2018-12-07T07:34:22.372Z,1004.53
2018-12-07T07:35:22.363Z,1004.54
2018-12-07T07:36:22.361Z,1004.59
2018-12-07T07:37:22.333Z,1004.51
2018-12-07T07:38:23.288Z,1004.50
2018-12-07T07:39:22.311Z,1004.50
2018-12-07T07:40:22.301Z,1004.50
2018-12-07T07:41:22.310Z,1004.50
2018-12-07T07:42:22.282Z,1004.45
2018-12-07T07:43:22.272Z,1004.42
2018-12-07T07:44:22.268Z,1004.41
2018-12-07T07:45:22.255Z,1004.37
2018-12-07T07:46:22.256Z,1004.39
2018-12-07T07:47:22.231Z,1004.38
2018-12-07T07:48:22.221Z,1004.40
2018-12-07T07:49:22.208Z,1004.37
2018-12-07T07:50:22.203Z,1004.40
2018-12-07T07:51:22.214Z,1004.35
2018-12-07T07:52:22.208Z,1004.30
2018-12-07T07:53:22.171Z,1004.29
2018-12-07T07:54:22.155Z,1004.26
2018-12-07T07:55:22.148Z,1004.26
2018-12-07T07:56:22.150Z,1004.21
2018-12-07T07:57:22.130Z,1004.24
2018-12-07T07:58:22.120Z,1004.22
2018-12-07T07:59:22.111Z,1004.24
2018-12-07T08:00:22.095Z,1004.20
2018-12-07T08:01:22.125Z,1004.19
2018-12-07T08:02:22.075Z,1004.21
2018-12-07T08:03:22.071Z,1004.18
2018-12-07T08:04:22.059Z,1004.12
2018-12-07T08:05:22.045Z,1004.15
2018-12-07T08:06:22.038Z,1004.09
2018-12-07T08:07:22.047Z,1004.11
2018-12-07T08:08:22.021Z,1004.06
2018-12-07T08:09:22.009Z,1004.10
2018-12-07T08:10:21.994Z,1004.05
2018-12-07T08:11:21.986Z,1004.02
2018-12-07T08:12:21.991Z,1003.95
2018-12-07T08:13:21.975Z,1003.97
2018-12-07T08:14:21.962Z,1003.98
2018-12-07T08:15:21.944Z,1003.96
2018-12-07T08:16:21.935Z,1003.91
2018-12-07T08:17:21.932Z,1003.90
2018-12-07T08:18:21.927Z,1003.90
2018-12-07T08:19:21.905Z,1003.90
2018-12-07T08:20:21.901Z,1003.92
2018-12-07T08:21:21.898Z,1003.84
2018-12-07T08:22:21.885Z,1003.88
2018-12-07T08:23:21.863Z,1003.83
2018-12-07T08:24:21.848Z,1003.83
2018-12-07T08:25:21.847Z,1003.88
2018-12-07T08:26:21.834Z,1003.83
2018-12-07T08:27:21.843Z,1003.79
2018-12-07T08:28:22.667Z,1003.84
2018-12-07T08:29:21.801Z,1003.89
2018-12-07T08:30:21.786Z,1003.89
2018-12-07T08:31:21.781Z,1003.88
2018-12-07T08:32:21.794Z,1003.89
2018-12-07T08:33:21.758Z,1003.86
2018-12-07T08:34:21.757Z,1003.84
2018-12-07T08:35:21.751Z,1003.83
2018-12-07T08:36:21.727Z,1003.83
2018-12-07T08:37:21.738Z,1003.83
2018-12-07T08:38:21.704Z,1003.84
2018-12-07T08:39:21.701Z,1003.86
2018-12-07T08:40:21.703Z,1003.90
2018-12-07T08:41:21.692Z,1003.87
2018-12-07T08:42:21.691Z,1003.82
2018-12-07T08:43:21.659Z,1003.80
2018-12-07T08:44:21.648Z,1003.81
2018-12-07T08:45:21.635Z,1003.82
2018-12-07T08:46:21.620Z,1003.82
2018-12-07T08:47:21.616Z,1003.76
2018-12-07T08:48:21.615Z,1003.80
2018-12-07T08:49:21.600Z,1003.76
2018-12-07T08:50:21.581Z,1003.74
2018-12-07T08:51:21.571Z,1003.71
2018-12-07T08:52:21.563Z,1003.71
2018-12-07T08:53:21.575Z,1003.71
2018-12-07T08:54:21.539Z,1003.69
2018-12-07T08:55:21.527Z,1003.69
2018-12-07T08:56:21.522Z,1003.73
2018-12-07T08:57:21.503Z,1003.74
2018-12-07T08:58:21.520Z,1003.69
2018-12-07T08:59:21.507Z,1003.72
2018-12-07T09:00:21.476Z,1003.65
2018-12-07T09:01:21.465Z,1003.71
2018-12-07T09:02:21.459Z,1003.67
2018-12-07T09:03:21.499Z,1003.65
2018-12-07T09:04:21.438Z,1003.66
2018-12-07T09:05:21.430Z,1003.67
2018-12-07T09:06:21.427Z,1003.62
2018-12-07T09:07:21.502Z,1003.61
2018-12-07T09:08:21.407Z,1003.60
2018-12-07T09:09:21.382Z,1003.62
2018-12-07T09:10:21.386Z,1003.61
2018-12-07T09:11:21.371Z,1003.59
2018-12-07T09:12:21.360Z,1003.59
2018-12-07T09:13:21.366Z,1003.54
2018-12-07T09:14:21.335Z,1003.57
2018-12-07T09:15:21.329Z,1003.61
2018-12-07T09:16:21.315Z,1003.57
2018-12-07T09:17:21.306Z,1003.53
2018-12-07T09:18:21.328Z,1003.54
2018-12-07T09:19:21.288Z,1003.55
2018-12-07T09:20:21.327Z,1003.52
2018-12-07T09:21:21.274Z,1003.50
2018-12-07T09:22:21.255Z,1003.49
2018-12-07T09:23:21.270Z,1003.50
2018-12-07T09:24:21.249Z,1003.49
2018-12-07T09:25:21.267Z,1003.48
2018-12-07T09:26:21.220Z,1003.39
2018-12-07T09:27:21.215Z,1003.38
2018-12-07T09:28:21.218Z,1003.41
2018-12-07T09:29:21.223Z,1003.37
2018-12-07T09:30:21.176Z,1003.31
2018-12-07T09:31:21.167Z,1003.31
2018-12-07T09:32:21.182Z,1003.32
2018-12-07T09:33:21.194Z,1003.30
2018-12-07T09:34:21.212Z,1003.29
2018-12-07T09:35:21.132Z,1003.28
2018-12-07T09:36:21.121Z,1003.32
2018-12-07T09:37:21.110Z,1003.28
2018-12-07T09:38:21.127Z,1003.32
2018-12-07T09:39:21.092Z,1003.29
2018-12-07T09:40:21.072Z,1003.22
2018-12-07T09:41:21.056Z,1003.20
2018-12-07T09:42:21.051Z,1003.22
2018-12-07T09:43:21.047Z,1003.22
2018-12-07T09:44:21.063Z,1003.20
2018-12-07T09:45:21.015Z,1003.24
2018-12-07T09:46:21.013Z,1003.15
2018-12-07T09:47:20.995Z,1003.17
2018-12-07T09:48:20.987Z,1003.12
2018-12-07T09:49:21.023Z,1003.12
2018-12-07T09:50:20.971Z,1003.11
2018-12-07T09:51:20.979Z,1003.10
2018-12-07T09:52:20.975Z,1003.04
2018-12-07T09:53:20.942Z,1003.08
2018-12-07T09:54:20.953Z,1003.06
2018-12-07T09:55:20.915Z,1003.06
2018-12-07T09:56:20.900Z,1003.04
2018-12-07T09:57:20.892Z,1003.07
2018-12-07T09:58:20.881Z,1002.99
2018-12-07T09:59:20.898Z,1003.00
2018-12-07T10:00:20.861Z,1002.92
2018-12-07T10:01:20.850Z,1003.03
2018-12-07T10:02:20.841Z,1002.96
2018-12-07T10:03:20.827Z,1002.93
2018-12-07T10:04:20.847Z,1002.90
2018-12-07T10:05:20.819Z,1002.85
2018-12-07T10:06:20.802Z,1002.83
2018-12-07T10:07:20.788Z,1002.73
2018-12-07T10:08:20.780Z,1002.77
2018-12-07T10:09:20.809Z,1002.70
2018-12-07T10:10:20.760Z,1002.64
2018-12-07T10:11:20.752Z,1002.65
2018-12-07T10:12:20.739Z,1002.61
2018-12-07T10:13:20.723Z,1002.61
2018-12-07T10:14:20.734Z,1002.60
2018-12-07T10:15:20.715Z,1002.60
2018-12-07T10:16:20.696Z,1002.55
2018-12-07T10:17:20.677Z,1002.52
2018-12-07T10:18:20.757Z,1002.45
2018-12-07T10:19:20.670Z,1002.49
2018-12-07T10:20:20.687Z,1002.47
2018-12-07T10:21:20.654Z,1002.40
2018-12-07T10:22:20.633Z,1002.40
2018-12-07T10:23:20.621Z,1002.41
2018-12-07T10:24:20.617Z,1002.37
2018-12-07T10:25:20.629Z,1002.33
2018-12-07T10:26:20.602Z,1002.36
2018-12-07T10:27:20.603Z,1002.28
2018-12-07T10:28:20.592Z,1002.29
2018-12-07T10:29:20.629Z,1002.29
2018-12-07T10:30:20.594Z,1002.24
2018-12-07T10:31:20.566Z,1002.28
2018-12-07T10:32:20.559Z,1002.27
2018-12-07T10:33:20.523Z,1002.27
2018-12-07T10:34:20.509Z,1002.23
2018-12-07T10:35:20.497Z,1002.19
2018-12-07T10:36:20.506Z,1002.17
2018-12-07T10:37:20.478Z,1002.20
2018-12-07T10:38:20.469Z,1002.16
2018-12-07T10:39:20.475Z,1002.17
2018-12-07T10:40:20.457Z,1002.09
2018-12-07T10:41:20.483Z,1002.14
2018-12-07T10:42:20.432Z,1002.13
2018-12-07T10:43:20.410Z,1002.09
2018-12-07T10:44:20.426Z,1002.10
2018-12-07T10:45:20.396Z,1002.03
2018-12-07T10:46:20.470Z,1002.02
2018-12-07T10:47:20.377Z,1002.03
2018-12-07T10:48:20.374Z,1001.97
2018-12-07T10:49:20.395Z,1001.94
2018-12-07T10:50:20.357Z,1001.92
2018-12-07T10:51:20.353Z,1001.93
2018-12-07T10:52:20.389Z,1001.89
2018-12-07T10:53:20.391Z,1001.85
2018-12-07T10:54:20.311Z,1001.85
2018-12-07T10:55:20.302Z,1001.85
2018-12-07T10:56:20.296Z,1001.78
2018-12-07T10:57:20.306Z,1001.85
2018-12-07T10:58:20.316Z,1001.80
2018-12-07T10:59:20.319Z,1001.78
2018-12-07T11:00:22.941Z,1001.69
2018-12-07T11:01:20.224Z,1001.77
2018-12-07T11:02:20.238Z,1001.65
2018-12-07T11:03:20.232Z,1001.66
2018-12-07T11:04:20.268Z,1001.56
2018-12-07T11:05:20.189Z,1001.59
2018-12-07T11:06:20.189Z,1001.61
2018-12-07T11:07:20.196Z,1001.59
2018-12-07T11:08:20.166Z,1001.58
2018-12-07T11:09:20.172Z,1001.53
2018-12-07T11:10:20.144Z,1001.52
2018-12-07T11:11:20.129Z,1001.49
2018-12-07T11:12:20.137Z,1001.47
2018-12-07T11:13:20.131Z,1001.48
2018-12-07T11:14:20.112Z,1001.43
2018-12-07T11:15:20.090Z,1001.43
2018-12-07T11:16:20.079Z,1001.44
2018-12-07T11:17:20.075Z,1001.35
2018-12-07T11:18:20.065Z,1001.36
2018-12-07T11:19:20.048Z,1001.42
2018-12-07T11:20:20.052Z,1001.36
2018-12-07T11:21:20.057Z,1001.34
2018-12-07T11:22:20.151Z,1001.35
2018-12-07T11:23:20.034Z,1001.30
2018-12-07T11:24:19.992Z,1001.30
2018-12-07T11:25:19.996Z,1001.30
2018-12-07T11:26:19.983Z,1001.30
2018-12-07T11:27:19.971Z,1001.26
2018-12-07T11:28:19.969Z,1001.22
2018-12-07T11:29:19.950Z,1001.18
2018-12-07T11:30:19.925Z,1001.16
2018-12-07T11:31:19.930Z,1001.14
2018-12-07T11:32:19.912Z,1001.19
2018-12-07T11:33:19.929Z,1001.15
2018-12-07T11:34:19.888Z,1001.16
2018-12-07T11:35:19.902Z,1001.14
2018-12-07T11:36:19.867Z,1001.05
2018-12-07T11:37:19.855Z,1001.09
2018-12-07T11:38:19.870Z,1001.08
2018-12-07T11:39:19.839Z,1001.09
2018-12-07T11:40:19.827Z,1001.08
2018-12-07T11:41:19.821Z,1001.02
2018-12-07T11:42:19.804Z,1001.05
2018-12-07T11:43:19.826Z,1001.05
2018-12-07T11:44:19.786Z,1001.05
2018-12-07T11:45:19.774Z,1001.02
2018-12-07T11:46:19.765Z,1001.02
2018-12-07T11:47:19.785Z,1001.02
2018-12-07T11:48:19.747Z,1000.98
2018-12-07T11:49:19.765Z,1000.95
2018-12-07T11:50:19.781Z,1000.96
2018-12-07T11:51:19.724Z,1000.86
2018-12-07T11:52:19.706Z,1000.87
2018-12-07T11:53:19.708Z,1000.87
2018-12-07T11:54:19.700Z,1000.89
2018-12-07T11:55:19.671Z,1000.82
2018-12-07T11:56:19.663Z,1000.84
2018-12-07T11:57:19.655Z,1000.84
2018-12-07T11:58:19.661Z,1000.77
2018-12-07T11:59:19.645Z,1000.77
2018-12-07T12:00:19.612Z,1000.77
2018-12-07T12:01:19.616Z,1000.74
2018-12-07T12:02:26.132Z,1000.71
2018-12-07T12:03:20.600Z,1000.78
2018-12-07T12:04:19.622Z,1000.73
2018-12-07T12:05:19.579Z,1000.70